Time;durP1;ratioP1;P1;durP2;ratioP2;P2;SDS_P1;SDS_P2;PMS_P1;PMS_P2;Temp;Humidity;BMP_temperature;BMP_pressure;BME280_temperature;BME280_humidity;BME280_pressure;Samples;Min_cycle;Max_cycle;Signal;HPM_P1;HPM_P2
2021/12/05 00:23:30;;;;;;;11.85;2.60;;;4.30;84.20;;;;;;5086628;28;20047;-88
2021/12/05 00:26:01;;;;;;;8.10;2.40;;;4.30;84.20;;;;;;5086480;28;20056;-91
2021/12/05 01:03:31;;;;;;;9.60;1.85;;;4.20;84.30;;;;;;5079724;28;20050;-90
2021/12/05 01:16:36;;;;;;;6.97;1.60;;;4.20;84.50;;;;;;5088468;28;20044;-90
2021/12/05 01:19:04;;;;;;;5.90;1.67;;;4.20;84.50;;;;;;5079630;28;20060;-90
2021/12/05 01:21:32;;;;;;;7.32;1.98;;;4.20;84.50;;;;;;5078647;28;20414;-89
2021/12/05 01:24:09;;;;;;;7.15;1.90;;;4.20;84.50;;;;;;5080766;28;20056;-92
2021/12/05 01:37:02;;;;;;;6.20;1.90;;;4.30;84.60;;;;;;5079254;28;20048;-90
2021/12/05 01:58:12;;;;;;;9.32;2.28;;;4.30;84.80;;;;;;5076916;28;20049;-90
2021/12/05 02:09:24;;;;;;;6.35;2.03;;;4.30;84.90;;;;;;5086184;28;20048;-91
2021/12/05 02:36:50;;;;;;;5.32;2.33;;;4.30;85.00;;;;;;5074930;28;20048;-90
2021/12/05 02:41:49;;;;;;;9.10;2.20;;;4.30;85.10;;;;;;5064954;28;20057;-91
2021/12/05 02:47:02;;;;;;;8.68;2.03;;;4.30;85.10;;;;;;5089693;28;20120;-90
2021/12/05 02:49:31;;;;;;;8.95;2.38;;;4.40;85.20;;;;;;5085929;28;20056;-90
2021/12/05 02:52:05;;;;;;;8.25;2.20;;;4.40;85.10;;;;;;5075880;28;20052;-89
2021/12/05 02:54:40;;;;;;;9.10;2.55;;;4.40;85.10;;;;;;5075972;28;20418;-89
2021/12/05 02:57:08;;;;;;;9.40;2.60;;;4.30;85.10;;;;;;5077255;28;20398;-89
2021/12/05 03:02:09;;;;;;;9.50;2.15;;;4.40;85.20;;;;;;5071431;28;20040;-89
2021/12/05 03:04:39;;;;;;;;;;;4.40;85.20;;;;;;5088933;28;20079;-91
2021/12/05 03:07:09;;;;;;;4.78;1.95;;;4.40;85.20;;;;;;5074754;28;19924;-89
2021/12/05 03:09:38;;;;;;;6.70;2.47;;;4.40;85.20;;;;;;5074472;28;20044;-89
2021/12/05 03:12:09;;;;;;;9.27;2.50;;;4.40;85.20;;;;;;5074194;28;20041;-91
2021/12/05 03:14:37;;;;;;;8.82;2.72;;;4.40;85.20;;;;;;5072342;28;20454;-90
2021/12/05 03:17:04;;;;;;;9.35;2.60;;;4.40;85.20;;;;;;5070480;28;20044;-90
2021/12/05 03:19:31;;;;;;;11.43;2.60;;;4.40;85.20;;;;;;5075590;28;20459;-90
2021/12/05 03:21:58;;;;;;;7.57;2.58;;;4.40;85.20;;;;;;5074300;28;20113;-90
2021/12/05 03:24:26;;;;;;;11.05;2.70;;;4.40;85.30;;;;;;5075853;28;20048;-91
2021/12/05 03:26:53;;;;;;;8.48;2.53;;;4.40;85.30;;;;;;5074922;28;20401;-92
2021/12/05 03:29:22;;;;;;;6.05;2.40;;;4.40;85.30;;;;;;5065718;28;20044;-90
2021/12/05 03:31:51;;;;;;;6.63;2.60;;;4.40;85.30;;;;;;5087011;28;20110;-92
2021/12/05 03:34:19;;;;;;;6.60;2.58;;;4.40;85.30;;;;;;5077309;28;20132;-90
2021/12/05 03:36:49;;;;;;;7.90;2.70;;;4.40;85.30;;;;;;5077460;28;20048;-91
2021/12/05 03:39:17;;;;;;;7.78;2.30;;;4.40;85.30;;;;;;5076580;28;20053;-91
2021/12/05 03:41:45;;;;;;;6.63;2.40;;;4.40;85.30;;;;;;5076301;28;20493;-90
2021/12/05 03:44:15;;;;;;;7.55;2.63;;;4.40;85.30;;;;;;5073241;28;20064;-88
2021/12/05 03:46:43;;;;;;;8.32;2.75;;;4.40;85.30;;;;;;5075021;28;20040;-91
2021/12/05 03:49:12;;;;;;;7.38;2.30;;;4.40;85.30;;;;;;5077222;28;20044;-90
2021/12/05 03:51:44;;;;;;;7.95;2.65;;;4.40;85.30;;;;;;5076010;28;20060;-90
2021/12/05 03:54:11;;;;;;;5.80;2.25;;;4.40;85.30;;;;;;5074143;28;20048;-90
2021/12/05 03:56:39;;;;;;;7.68;2.30;;;4.40;85.30;;;;;;5074884;28;20048;-92
2021/12/05 03:59:09;;;;;;;5.47;2.22;;;4.40;85.40;;;;;;5072701;28;20041;-91
2021/12/05 04:01:37;;;;;;;5.05;1.98;;;4.40;85.40;;;;;;5074551;28;20444;-90
2021/12/05 04:04:05;;;;;;;5.45;2.30;;;4.40;85.40;;;;;;5077285;28;20052;-91
2021/12/05 04:06:32;;;;;;;6.38;2.13;;;4.40;85.40;;;;;;5072098;28;20040;-90
2021/12/05 04:09:01;;;;;;;7.45;2.20;;;4.40;85.40;;;;;;5074300;28;20048;-90
2021/12/05 04:11:36;;;;;;;6.65;2.50;;;4.40;85.40;;;;;;5073918;28;20051;-90
2021/12/05 04:14:09;;;;;;;4.60;2.10;;;4.40;85.40;;;;;;5056089;28;20040;-91
2021/12/05 04:16:37;;;;;;;5.30;1.93;;;4.40;85.40;;;;;;5073884;28;20049;-90
2021/12/05 04:19:06;;;;;;;7.82;2.28;;;4.40;85.40;;;;;;5078315;28;20040;-90
2021/12/05 04:21:36;;;;;;;5.50;2.08;;;4.40;85.40;;;;;;5079030;28;20052;-91
2021/12/05 04:24:05;;;;;;;7.28;2.78;;;4.40;85.40;;;;;;5078509;28;20052;-89
2021/12/05 04:26:33;;;;;;;5.97;2.15;;;4.40;85.40;;;;;;5078689;28;20542;-91
2021/12/05 04:29:00;;;;;;;8.80;2.42;;;4.40;85.40;;;;;;5074351;28;20517;-90
2021/12/05 04:31:27;;;;;;;5.90;2.22;;;4.40;85.40;;;;;;5080438;28;20041;-91
2021/12/05 04:33:54;;;;;;;6.75;2.20;;;4.40;85.40;;;;;;5077736;28;20094;-92
2021/12/05 04:36:22;;;;;;;8.60;2.05;;;4.40;85.40;;;;;;5079416;28;20041;-91
2021/12/05 04:38:49;;;;;;;6.05;2.10;;;4.40;85.50;;;;;;5079621;28;20043;-90
2021/12/05 04:41:16;;;;;;;5.57;1.98;;;4.40;85.50;;;;;;5074163;28;20088;-90
2021/12/05 04:43:44;;;;;;;5.07;2.13;;;4.40;85.40;;;;;;5091701;28;20099;-90
2021/12/05 04:46:16;;;;;;;5.13;2.03;;;4.40;85.50;;;;;;5080848;28;20055;-91
2021/12/05 04:48:47;;;;;;;6.28;2.03;;;4.40;85.50;;;;;;5077714;28;20080;-91
2021/12/05 04:51:14;;;;;;;5.35;2.20;;;4.40;85.50;;;;;;5078993;28;20052;-91
2021/12/05 04:53:41;;;;;;;5.07;1.60;;;4.40;85.50;;;;;;5077258;28;20044;-90
2021/12/05 04:56:08;;;;;;;5.32;1.98;;;4.40;85.50;;;;;;5072978;28;20567;-90
2021/12/05 04:58:36;;;;;;;5.10;1.90;;;4.40;85.50;;;;;;5078058;28;20044;-90
2021/12/05 05:01:05;;;;;;;10.60;2.63;;;4.40;85.50;;;;;;5077629;28;20052;-90
2021/12/05 05:03:34;;;;;;;4.45;1.90;;;4.40;85.50;;;;;;5087385;28;20044;-90
2021/12/05 05:06:14;;;;;;;6.45;1.83;;;4.40;85.50;;;;;;5084133;28;20052;-89
2021/12/05 05:08:43;;;;;;;4.43;1.73;;;4.30;85.40;;;;;;5079249;28;20463;-90
2021/12/05 05:11:13;;;;;;;5.68;1.98;;;4.40;85.50;;;;;;5074845;28;20048;-91
2021/12/05 05:13:41;;;;;;;5.80;1.60;;;4.40;85.40;;;;;;5075687;28;20048;-92
2021/12/05 05:16:09;;;;;;;5.32;1.52;;;4.40;85.40;;;;;;5077645;28;20067;-91
2021/12/05 05:18:58;;;;;;;6.45;1.83;;;4.30;85.40;;;;;;5077715;28;20139;-92
2021/12/05 05:21:49;;;;;;;5.32;1.63;;;4.40;85.50;;;;;;5076794;28;20052;-92
2021/12/05 05:27:20;;;;;;;5.32;1.83;;;4.30;85.40;;;;;;5079116;28;20044;-90
2021/12/05 05:46:24;;;;;;;6.82;2.00;;;4.30;85.50;;;;;;5055978;28;20053;-89
2021/12/05 05:51:24;;;;;;;3.67;1.67;;;4.30;85.50;;;;;;5060906;28;20048;-92
2021/12/05 05:53:51;;;;;;;5.55;1.50;;;4.20;85.50;;;;;;5056287;28;20053;-91
2021/12/05 05:56:22;;;;;;;6.00;1.80;;;4.30;85.50;;;;;;5053014;28;20052;-90
2021/12/05 05:58:54;;;;;;;3.85;1.80;;;4.30;85.50;;;;;;5050397;28;20079;-91
2021/12/05 06:04:05;;;;;;;4.95;2.00;;;4.20;85.50;;;;;;5056035;28;20528;-89
2021/12/05 06:06:33;;;;;;;6.30;2.28;;;4.20;85.50;;;;;;5056775;28;20048;-90
2021/12/05 06:09:01;;;;;;;6.03;1.92;;;4.30;85.50;;;;;;5062113;28;20064;-90
2021/12/05 06:11:29;;;;;;;4.60;1.98;;;4.20;85.50;;;;;;5053997;28;20052;-89
2021/12/05 06:13:56;;;;;;;5.32;1.70;;;4.20;85.50;;;;;;5035691;28;20045;-90
2021/12/05 06:16:23;;;;;;;7.95;1.90;;;4.30;85.60;;;;;;5058109;28;20136;-91
2021/12/05 06:18:50;;;;;;;5.20;1.80;;;4.20;85.60;;;;;;5055979;28;20048;-89
2021/12/05 06:21:17;;;;;;;5.00;2.05;;;4.20;85.60;;;;;;5052682;28;20044;-90
2021/12/05 06:23:44;;;;;;;8.18;1.73;;;4.30;85.60;;;;;;5064994;28;20048;-89
2021/12/05 06:26:19;;;;;;;6.95;1.90;;;4.20;85.60;;;;;;5053238;28;20448;-89
2021/12/05 06:29:17;;;;;;;7.60;1.95;;;4.20;85.60;;;;;;5052580;28;20045;-91
2021/12/05 06:31:54;;;;;;;4.25;1.77;;;4.30;85.60;;;;;;5068253;28;20055;-90
2021/12/05 06:48:13;;;;;;;6.30;2.80;;;4.30;85.70;;;;;;5034686;28;20457;-91
2021/12/05 06:50:40;;;;;;;9.63;2.88;;;4.30;85.70;;;;;;5034701;28;20056;-91
2021/12/05 06:53:07;;;;;;;11.15;2.30;;;4.30;85.70;;;;;;5031519;28;20045;-93
2021/12/05 06:55:35;;;;;;;11.45;2.58;;;4.30;85.80;;;;;;5017046;28;20061;-91
2021/12/05 06:58:02;;;;;;;9.27;2.40;;;4.40;85.80;;;;;;5035064;28;20516;-91
2021/12/05 07:00:30;;;;;;;10.50;2.13;;;4.40;85.80;;;;;;5034617;28;20418;-91
2021/12/05 07:02:58;;;;;;;9.25;2.15;;;4.40;85.80;;;;;;5034267;28;20037;-90
2021/12/05 07:08:14;;;;;;;7.07;2.15;;;4.40;85.80;;;;;;5017954;28;20505;-89
2021/12/05 07:11:02;;;;;;;8.52;2.33;;;4.40;85.80;;;;;;5048235;28;20118;-90
2021/12/05 07:18:44;;;;;;;9.73;2.20;;;4.40;85.90;;;;;;5034121;28;20108;-90
2021/12/05 07:42:41;;;;;;;6.43;1.95;;;4.40;85.90;;;;;;5048351;28;20102;-90
2021/12/05 07:45:19;;;;;;;6.63;2.17;;;4.40;85.80;;;;;;5068862;28;20059;-89
2021/12/05 07:47:51;;;;;;;5.57;1.98;;;4.50;85.80;;;;;;5075187;28;20048;-89
2021/12/05 07:50:23;;;;;;;6.07;1.83;;;4.50;85.80;;;;;;5074902;28;20802;-90
2021/12/05 07:52:53;;;;;;;4.50;1.80;;;4.50;85.80;;;;;;5070099;28;20094;-90
2021/12/05 07:55:26;;;;;;;5.40;1.73;;;4.50;85.90;;;;;;5076060;28;20052;-91
2021/12/05 08:00:54;;;;;;;8.65;2.25;;;4.50;85.80;;;;;;5080461;28;20573;-91
2021/12/05 08:14:40;;;;;;;8.00;2.35;;;4.50;85.90;;;;;;5072950;28;20122;-89
2021/12/05 08:17:15;;;;;;;6.60;2.83;;;4.50;85.80;;;;;;5085117;28;20041;-90
2021/12/05 08:19:42;;;;;;;5.60;2.55;;;4.50;85.90;;;;;;5087553;28;20059;-91
2021/12/05 08:22:09;;;;;;;10.25;3.15;;;4.50;85.90;;;;;;5075237;28;20045;-91
2021/12/05 08:24:40;;;;;;;8.82;2.50;;;4.50;85.90;;;;;;5084641;28;20520;-91
2021/12/05 08:27:12;;;;;;;7.60;2.38;;;4.50;85.90;;;;;;5079104;28;20045;-90
2021/12/05 08:29:50;;;;;;;5.72;1.98;;;4.50;85.90;;;;;;5075079;28;20052;-90
2021/12/05 08:34:58;;;;;;;6.63;2.78;;;4.60;86.00;;;;;;5071792;28;20052;-92
2021/12/05 09:26:28;;;;;;;5.20;1.80;;;4.70;86.00;;;;;;5056615;28;20048;-89
2021/12/05 09:29:49;;;;;;;4.28;1.70;;;4.70;85.90;;;;;;5089546;28;20040;-90
2021/12/05 10:08:11;;;;;;;5.60;1.80;;;4.80;86.00;;;;;;5050407;28;20052;-90
2021/12/05 10:11:23;;;;;;;3.83;1.58;;;4.90;86.00;;;;;;5045899;28;20056;-92
2021/12/05 10:13:31;;;;;;;4.68;1.58;;;4.80;86.00;;;;;;5031985;28;20049;-90
2021/12/05 10:38:28;;;;;;;3.15;1.55;;;5.00;86.00;;;;;;5023816;28;20889;-90
2021/12/05 10:43:42;;;;;;;5.40;1.40;;;5.00;86.00;;;;;;5088078;28;20048;-90
2021/12/05 10:46:16;;;;;;;4.80;1.67;;;5.00;86.00;;;;;;5078060;28;20527;-89
2021/12/05 10:48:48;;;;;;;4.32;1.70;;;5.10;86.00;;;;;;5077814;28;20056;-89
2021/12/05 10:51:20;;;;;;;3.30;1.50;;;5.10;86.00;;;;;;5079339;28;20118;-90
2021/12/05 10:54:10;;;;;;;2.95;1.60;;;5.10;86.00;;;;;;5077733;28;20048;-90
2021/12/05 10:56:40;;;;;;;4.15;1.67;;;5.10;86.00;;;;;;5078107;28;20048;-90
2021/12/05 10:59:13;;;;;;;3.10;1.50;;;5.20;86.00;;;;;;5077120;28;20045;-93
2021/12/05 11:01:56;;;;;;;4.18;1.70;;;5.20;86.00;;;;;;5093586;28;20059;-91
2021/12/05 11:04:30;;;;;;;4.25;1.90;;;5.20;86.00;;;;;;5081851;28;20451;-91
2021/12/05 11:07:11;;;;;;;3.33;1.73;;;5.20;86.00;;;;;;5079019;28;20497;-91
2021/12/05 11:09:43;;;;;;;4.07;1.77;;;5.30;85.90;;;;;;5082326;28;20052;-91
2021/12/05 11:12:19;;;;;;;3.83;2.13;;;5.30;85.90;;;;;;5079425;28;20052;-91
2021/12/05 11:14:49;;;;;;;3.83;1.85;;;5.30;85.90;;;;;;5081809;28;20047;-91
2021/12/05 11:17:21;;;;;;;4.65;2.08;;;5.30;86.00;;;;;;5075624;28;20071;-91
2021/12/05 11:19:51;;;;;;;4.72;2.08;;;5.40;86.00;;;;;;5090460;28;20166;-92
2021/12/05 11:22:31;;;;;;;4.47;2.40;;;5.40;86.00;;;;;;5087779;28;20074;-92
2021/12/05 11:25:10;;;;;;;7.05;2.30;;;5.40;86.00;;;;;;5082657;28;20554;-90
2021/12/05 11:27:49;;;;;;;5.68;2.25;;;5.50;85.90;;;;;;5078737;28;20079;-92
2021/12/05 11:30:31;;;;;;;4.22;2.25;;;5.50;85.90;;;;;;5075952;28;20040;-90
2021/12/05 11:33:19;;;;;;;5.55;2.22;;;5.50;85.90;;;;;;5077761;28;20052;-91
2021/12/05 11:35:58;;;;;;;5.05;2.22;;;5.50;85.90;;;;;;5068589;28;20052;-90
2021/12/05 11:38:29;;;;;;;5.60;2.40;;;5.60;85.90;;;;;;5088494;28;20047;-90
2021/12/05 11:41:05;;;;;;;4.85;2.17;;;5.60;85.90;;;;;;5055053;28;20045;-91
2021/12/05 11:43:46;;;;;;;8.70;2.95;;;5.70;85.90;;;;;;5087242;28;20248;-91
2021/12/05 11:46:32;;;;;;;4.70;2.35;;;5.70;85.90;;;;;;5092107;28;20101;-90
2021/12/05 11:49:13;;;;;;;5.20;2.22;;;5.80;85.90;;;;;;5077614;28;20052;-92
2021/12/05 11:51:47;;;;;;;3.92;2.38;;;5.80;85.90;;;;;;5081574;28;20044;-92
2021/12/05 11:54:20;;;;;;;4.75;2.42;;;5.80;85.80;;;;;;5086560;28;20463;-91
2021/12/05 11:57:14;;;;;;;4.30;2.47;;;5.80;85.80;;;;;;5080667;28;20487;-92
2021/12/05 11:59:51;;;;;;;4.30;2.38;;;5.90;85.80;;;;;;5076026;28;20048;-89
2021/12/05 12:02:22;;;;;;;4.47;2.30;;;5.90;85.80;;;;;;5073176;28;20041;-92
2021/12/05 12:05:02;;;;;;;5.15;2.10;;;5.90;85.70;;;;;;5072928;28;20074;-91
2021/12/05 12:07:39;;;;;;;4.15;2.22;;;5.90;85.70;;;;;;5086021;28;20044;-90
2021/12/05 12:10:19;;;;;;;4.47;2.45;;;5.90;85.60;;;;;;5077941;28;20056;-90
2021/12/05 12:13:00;;;;;;;4.32;2.30;;;6.00;85.60;;;;;;5075907;28;20055;-93
2021/12/05 12:15:29;;;;;;;5.43;2.50;;;6.00;85.50;;;;;;5074116;28;20055;-90
2021/12/05 12:18:06;;;;;;;4.97;2.53;;;6.00;85.50;;;;;;5075719;28;20049;-91
2021/12/05 12:20:34;;;;;;;3.97;2.10;;;6.00;85.40;;;;;;5076348;28;20048;-90
2021/12/05 12:23:02;;;;;;;5.78;2.10;;;6.00;85.40;;;;;;5071344;28;20049;-91
2021/12/05 12:25:33;;;;;;;4.25;2.35;;;6.00;85.40;;;;;;5077071;28;20044;-91
2021/12/05 12:28:00;;;;;;;4.13;2.17;;;6.00;85.30;;;;;;5087796;28;20052;-92
2021/12/05 12:30:31;;;;;;;4.25;2.30;;;6.00;85.30;;;;;;5077973;28;20045;-91
2021/12/05 12:33:23;;;;;;;4.32;2.22;;;6.00;85.30;;;;;;5078572;28;20051;-90
2021/12/05 12:35:50;;;;;;;4.03;2.15;;;6.00;85.20;;;;;;5084868;28;20048;-91
2021/12/05 12:38:31;;;;;;;4.57;2.47;;;6.10;85.20;;;;;;5072516;28;20445;-90
2021/12/05 12:41:12;;;;;;;4.60;2.22;;;6.10;85.10;;;;;;5056836;28;20095;-89
2021/12/05 12:43:46;;;;;;;5.50;2.35;;;6.10;85.10;;;;;;5089350;28;20062;-90
2021/12/05 12:46:19;;;;;;;3.65;1.70;;;6.00;85.10;;;;;;5079872;28;20052;-90
2021/12/05 12:48:47;;;;;;;4.07;1.90;;;6.10;85.10;;;;;;5077139;28;20048;-92
2021/12/05 12:51:34;;;;;;;6.05;2.50;;;6.00;85.10;;;;;;5078120;28;20107;-89
2021/12/05 12:54:15;;;;;;;3.83;1.90;;;6.10;85.10;;;;;;5079649;28;20041;-90
2021/12/05 12:57:13;;;;;;;5.88;2.10;;;6.00;85.00;;;;;;5079173;28;20462;-92
2021/12/05 13:00:08;;;;;;;5.22;2.10;;;6.10;85.00;;;;;;5080509;28;20056;-90
2021/12/05 13:11:07;;;;;;;3.90;1.70;;;6.10;85.00;;;;;;5059792;28;20497;-91
2021/12/05 13:13:36;;;;;;;4.03;1.80;;;6.10;85.00;;;;;;5078938;28;20056;-89
2021/12/05 13:16:27;;;;;;;4.32;1.85;;;6.10;85.00;;;;;;5092776;28;20052;-91
2021/12/05 13:19:07;;;;;;;5.03;2.08;;;6.10;85.00;;;;;;5077309;28;20052;-88
2021/12/05 13:21:42;;;;;;;4.18;1.80;;;6.10;85.00;;;;;;5078297;28;20069;-90
2021/12/05 13:24:28;;;;;;;5.43;2.05;;;6.10;85.00;;;;;;5076817;28;20056;-90
2021/12/05 13:27:01;;;;;;;4.93;1.95;;;6.20;85.00;;;;;;5076300;28;20047;-93
2021/12/05 13:29:31;;;;;;;5.10;2.25;;;6.20;85.00;;;;;;5088972;28;20428;-89
2021/12/05 13:32:06;;;;;;;6.32;2.17;;;6.10;84.90;;;;;;5057162;28;20040;-91
2021/12/05 13:34:41;;;;;;;4.35;1.80;;;6.10;84.90;;;;;;5088462;28;20059;-90
2021/12/05 13:37:08;;;;;;;3.97;2.00;;;6.10;84.90;;;;;;5078452;28;20508;-90
2021/12/05 13:39:46;;;;;;;5.25;1.90;;;6.20;84.90;;;;;;5077585;28;20048;-89
2021/12/05 13:42:22;;;;;;;5.15;2.10;;;6.20;84.90;;;;;;5078547;28;20056;-92
2021/12/05 13:45:03;;;;;;;4.38;2.17;;;6.20;84.90;;;;;;5077234;28;20055;-89
2021/12/05 13:47:51;;;;;;;6.18;2.42;;;6.20;84.90;;;;;;5075418;28;20052;-90
2021/12/05 13:50:19;;;;;;;4.38;2.40;;;6.10;84.90;;;;;;5089252;28;20049;-89
2021/12/05 13:52:52;;;;;;;4.55;2.30;;;6.10;84.90;;;;;;5075237;28;20048;-90
2021/12/05 13:56:02;;;;;;;4.70;2.60;;;6.10;84.90;;;;;;5091089;28;20052;-89
2021/12/05 13:58:41;;;;;;;4.93;2.42;;;6.10;84.90;;;;;;5083014;28;20294;-92
2021/12/05 14:01:25;;;;;;;4.78;2.20;;;6.10;84.90;;;;;;5078008;28;20106;-92
2021/12/05 14:04:23;;;;;;;5.20;2.30;;;6.20;84.90;;;;;;5078075;28;20149;-90
2021/12/05 14:06:54;;;;;;;4.45;2.50;;;6.10;84.90;;;;;;5077939;28;20055;-90
2021/12/05 14:09:38;;;;;;;6.35;2.78;;;6.10;84.90;;;;;;5076001;28;20536;-89
2021/12/05 14:12:10;;;;;;;4.60;2.42;;;6.10;84.90;;;;;;5077203;28;20071;-90
2021/12/05 14:15:05;;;;;;;4.90;2.55;;;6.10;84.90;;;;;;5074092;28;20056;-91
2021/12/05 14:17:37;;;;;;;5.45;2.80;;;6.20;84.90;;;;;;5089356;28;20044;-91
2021/12/05 14:20:11;;;;;;;6.00;2.80;;;6.10;84.90;;;;;;5074083;28;20101;-91
2021/12/05 14:22:39;;;;;;;;;;;6.10;84.90;;;;;;5077444;28;20052;-90
2021/12/05 14:25:16;;;;;;;5.22;3.05;;;6.10;84.80;;;;;;5077294;28;19924;-90
2021/12/05 14:27:59;;;;;;;6.35;3.22;;;6.10;84.80;;;;;;5087684;28;20048;-90
2021/12/05 14:30:30;;;;;;;5.82;3.10;;;6.10;84.80;;;;;;5086978;28;20055;-90
2021/12/05 14:33:02;;;;;;;8.45;3.10;;;6.00;84.80;;;;;;5085375;28;20098;-91
2021/12/05 14:35:35;;;;;;;6.88;3.30;;;6.00;84.80;;;;;;5075636;28;20083;-91
2021/12/05 14:38:06;;;;;;;5.65;3.33;;;6.00;84.80;;;;;;5056989;28;20119;-90
2021/12/05 14:40:34;;;;;;;6.00;3.47;;;6.00;84.80;;;;;;5078150;28;20048;-90
2021/12/05 14:43:05;;;;;;;5.40;3.30;;;6.00;84.80;;;;;;5078647;28;20079;-90
2021/12/05 14:45:39;;;;;;;5.30;3.25;;;6.00;84.80;;;;;;5075781;28;20057;-90
2021/12/05 14:48:09;;;;;;;5.13;3.25;;;5.90;84.80;;;;;;5077068;28;20048;-91
2021/12/05 14:50:51;;;;;;;6.25;3.50;;;5.90;84.80;;;;;;5069708;28;20132;-93
2021/12/05 14:53:22;;;;;;;6.03;3.75;;;5.90;84.80;;;;;;5087589;28;20147;-90
2021/12/05 14:55:54;;;;;;;6.25;3.67;;;5.90;84.80;;;;;;5073803;28;20053;-90
2021/12/05 14:58:21;;;;;;;6.47;3.97;;;5.90;84.80;;;;;;5079192;28;20048;-90
2021/12/05 15:00:52;;;;;;;5.32;3.38;;;5.80;84.80;;;;;;5076034;28;20102;-90
2021/12/05 15:03:22;;;;;;;6.25;3.85;;;5.80;84.80;;;;;;5074774;28;20501;-92
2021/12/05 15:05:56;;;;;;;5.25;3.60;;;5.80;84.80;;;;;;5077517;28;20098;-91
2021/12/05 15:08:26;;;;;;;7.32;4.25;;;5.80;84.90;;;;;;5074322;28;20047;-90
2021/12/05 15:10:58;;;;;;;6.13;3.33;;;5.80;84.90;;;;;;5075481;28;20569;-92
2021/12/05 15:13:25;;;;;;;6.32;3.90;;;5.80;84.90;;;;;;5091137;28;20075;-91
2021/12/05 15:15:53;;;;;;;6.38;3.60;;;5.70;84.90;;;;;;5076359;28;20048;-90
2021/12/05 15:18:28;;;;;;;5.55;3.53;;;5.70;84.90;;;;;;5080127;28;20127;-91
2021/12/05 15:20:58;;;;;;;5.82;3.80;;;5.70;85.00;;;;;;5088688;28;20420;-90
2021/12/05 15:23:35;;;;;;;5.05;3.60;;;5.70;85.00;;;;;;5079343;28;20049;-90
2021/12/05 15:26:05;;;;;;;5.85;3.78;;;5.70;85.00;;;;;;5071950;28;20497;-92
2021/12/05 15:28:35;;;;;;;5.70;3.47;;;5.70;85.00;;;;;;5077446;28;20398;-91
2021/12/05 15:31:04;;;;;;;5.63;3.70;;;5.70;85.10;;;;;;5078072;28;20087;-92
2021/12/05 15:33:34;;;;;;;11.35;3.55;;;5.70;85.10;;;;;;5076894;28;20048;-90
2021/12/05 15:36:01;;;;;;;6.97;3.78;;;5.70;85.10;;;;;;5075077;28;20059;-90
2021/12/05 15:38:30;;;;;;;5.40;3.25;;;5.70;85.10;;;;;;5076908;28;20044;-90
2021/12/05 15:41:02;;;;;;;7.72;3.80;;;5.70;85.20;;;;;;5056987;28;20137;-90
2021/12/05 15:43:33;;;;;;;5.65;3.72;;;5.70;85.20;;;;;;5086766;28;20051;-92
2021/12/05 15:46:00;;;;;;;5.43;3.80;;;5.70;85.20;;;;;;5075892;28;20056;-91
2021/12/05 15:48:30;;;;;;;6.10;3.78;;;5.70;85.20;;;;;;5079805;28;20048;-91
2021/12/05 15:50:59;;;;;;;6.57;3.75;;;5.70;85.20;;;;;;5083390;28;20047;-91
2021/12/05 15:53:30;;;;;;;6.15;3.38;;;5.70;85.20;;;;;;5088448;28;20067;-90
2021/12/05 15:56:03;;;;;;;7.20;3.58;;;5.70;85.20;;;;;;5090908;28;20041;-92
2021/12/05 15:58:44;;;;;;;5.10;3.50;;;5.70;85.20;;;;;;5088241;28;20059;-91
2021/12/05 16:01:18;;;;;;;7.63;4.18;;;5.70;85.30;;;;;;5079834;28;20048;-92
2021/12/05 16:03:50;;;;;;;6.20;3.72;;;5.60;85.30;;;;;;5079430;28;20143;-90
2021/12/05 16:06:20;;;;;;;6.18;4.00;;;5.70;85.30;;;;;;5079268;28;20041;-91
2021/12/05 16:08:53;;;;;;;6.78;3.72;;;5.70;85.30;;;;;;5077196;28;20394;-92
2021/12/05 16:11:21;;;;;;;5.38;3.80;;;5.70;85.30;;;;;;5078546;28;20051;-90
2021/12/05 16:13:52;;;;;;;5.78;3.33;;;5.60;85.30;;;;;;5093555;28;20052;-92
2021/12/05 16:16:26;;;;;;;5.20;3.75;;;5.60;85.30;;;;;;5069734;28;20041;-92
2021/12/05 16:18:58;;;;;;;5.57;3.65;;;5.70;85.30;;;;;;5081395;28;20111;-92
2021/12/05 16:21:34;;;;;;;5.43;3.47;;;5.70;85.30;;;;;;5083008;28;20048;-91
2021/12/05 16:24:04;;;;;;;6.03;3.90;;;5.60;85.30;;;;;;5085022;28;20496;-91
2021/12/05 16:26:31;;;;;;;8.32;4.15;;;5.70;85.30;;;;;;5096229;28;20047;-92
2021/12/05 16:29:07;;;;;;;5.82;3.88;;;5.60;85.30;;;;;;5080476;28;20045;-91
2021/12/05 16:31:37;;;;;;;5.78;3.67;;;5.70;85.30;;;;;;5062440;28;20048;-91
2021/12/05 16:34:17;;;;;;;5.68;3.83;;;5.60;85.40;;;;;;5084749;28;20094;-93
2021/12/05 16:36:47;;;;;;;5.53;3.67;;;5.70;85.40;;;;;;5085318;28;20464;-92
2021/12/05 16:39:31;;;;;;;5.40;3.47;;;5.60;85.40;;;;;;5086197;28;20049;-91
2021/12/05 16:42:08;;;;;;;6.25;3.88;;;5.70;85.40;;;;;;5082743;28;20037;-92
2021/12/05 16:44:40;;;;;;;5.78;3.50;;;5.60;85.40;;;;;;5082303;28;20056;-92
2021/12/05 16:47:14;;;;;;;5.72;3.95;;;5.70;85.40;;;;;;5082278;28;20067;-92
2021/12/05 16:49:44;;;;;;;5.70;3.58;;;5.70;85.40;;;;;;5080583;28;20052;-93
2021/12/05 16:52:19;;;;;;;5.07;3.20;;;5.60;85.40;;;;;;5082825;28;20060;-92
2021/12/05 16:54:57;;;;;;;6.82;3.83;;;5.60;85.40;;;;;;5081874;28;20056;-91
2021/12/05 16:57:32;;;;;;;4.90;3.25;;;5.60;85.40;;;;;;5090256;28;20121;-93
2021/12/05 17:00:04;;;;;;;6.13;3.45;;;5.60;85.40;;;;;;5092652;28;20060;-91
2021/12/05 17:02:34;;;;;;;5.70;3.42;;;5.60;85.40;;;;;;5092612;28;20218;-90
2021/12/05 17:05:13;;;;;;;4.78;3.60;;;5.60;85.50;;;;;;5091954;28;20051;-92
2021/12/05 17:07:54;;;;;;;6.47;3.88;;;5.60;85.50;;;;;;5081486;28;20463;-92
2021/12/05 17:10:21;;;;;;;6.13;4.00;;;5.60;85.50;;;;;;5083834;28;20044;-91
2021/12/05 17:12:50;;;;;;;6.53;3.50;;;5.60;85.50;;;;;;5093009;28;20535;-92
2021/12/05 17:15:29;;;;;;;5.82;3.38;;;5.60;85.50;;;;;;5069459;28;20403;-91
2021/12/05 17:18:03;;;;;;;5.43;3.50;;;5.60;85.50;;;;;;5074684;28;20501;-91
2021/12/05 17:20:34;;;;;;;5.80;3.72;;;5.60;85.50;;;;;;5080066;28;20452;-90
2021/12/05 17:23:06;;;;;;;5.38;3.25;;;5.60;85.50;;;;;;5063289;28;20055;-91
2021/12/05 17:25:41;;;;;;;5.35;3.22;;;5.60;85.50;;;;;;5098547;28;20055;-90
2021/12/05 17:28:12;;;;;;;5.80;3.38;;;5.60;85.50;;;;;;5095000;28;20047;-91
2021/12/05 17:30:56;;;;;;;4.70;3.15;;;5.60;85.50;;;;;;5082749;28;20109;-91
2021/12/05 17:33:55;;;;;;;5.13;3.53;;;5.60;85.50;;;;;;5085870;28;20040;-91
2021/12/05 17:36:21;;;;;;;5.88;3.30;;;5.60;85.50;;;;;;5082422;28;20048;-91
2021/12/05 17:38:52;;;;;;;6.65;3.05;;;5.60;85.50;;;;;;5082161;28;20110;-92
2021/12/05 17:41:19;;;;;;;5.80;3.28;;;5.60;85.50;;;;;;5077353;28;20037;-90
2021/12/05 17:43:47;;;;;;;5.03;2.97;;;5.60;85.50;;;;;;5079121;28;20068;-90
2021/12/05 17:46:15;;;;;;;7.00;3.00;;;5.50;85.50;;;;;;5083780;28;20447;-89
2021/12/05 17:48:42;;;;;;;4.65;3.08;;;5.50;85.60;;;;;;5080193;28;20048;-90
2021/12/05 17:51:09;;;;;;;5.22;3.17;;;5.50;85.50;;;;;;5079482;28;20463;-90
2021/12/05 17:53:38;;;;;;;4.90;2.92;;;5.50;85.50;;;;;;5078592;28;20052;-91
2021/12/05 17:56:52;;;;;;;5.60;3.30;;;5.50;85.60;;;;;;5078805;28;20036;-90
2021/12/05 17:59:05;;;;;;;6.55;3.05;;;5.50;85.60;;;;;;5055928;28;20524;-91
2021/12/05 18:04:19;;;;;;;5.40;3.08;;;5.50;85.60;;;;;;5088725;28;20048;-91
2021/12/05 18:06:46;;;;;;;4.57;2.80;;;5.50;85.60;;;;;;5081143;28;20056;-91
2021/12/05 18:09:14;;;;;;;4.10;2.58;;;5.50;85.60;;;;;;5080367;28;20051;-91
2021/12/05 18:11:41;;;;;;;5.20;3.05;;;5.50;85.60;;;;;;5074847;28;20045;-91
2021/12/05 18:14:08;;;;;;;5.10;2.90;;;5.50;85.60;;;;;;5096361;28;20052;-91
2021/12/05 18:16:37;;;;;;;6.45;2.88;;;5.50;85.60;;;;;;5081735;28;20253;-91
2021/12/05 18:19:07;;;;;;;4.90;2.50;;;5.50;85.60;;;;;;5085043;28;20531;-91
2021/12/05 18:21:37;;;;;;;4.95;2.80;;;5.50;85.60;;;;;;5089425;28;20101;-90
2021/12/05 18:24:09;;;;;;;5.07;2.75;;;5.50;85.60;;;;;;5086848;28;20052;-91
2021/12/05 18:26:37;;;;;;;5.07;2.88;;;5.50;85.60;;;;;;5083513;28;20109;-91
2021/12/05 18:29:07;;;;;;;4.40;2.58;;;5.50;85.60;;;;;;5093367;28;20060;-91
2021/12/05 18:31:36;;;;;;;4.30;2.45;;;5.40;85.60;;;;;;5082784;28;20056;-90
2021/12/05 18:34:11;;;;;;;8.38;2.50;;;5.40;85.60;;;;;;5079836;28;20045;-90
2021/12/05 18:36:41;;;;;;;4.63;2.72;;;5.40;85.60;;;;;;5090917;28;20113;-91
2021/12/05 18:39:13;;;;;;;7.90;2.38;;;5.40;85.60;;;;;;5088783;28;20048;-91
2021/12/05 18:41:40;;;;;;;4.93;2.28;;;5.40;85.60;;;;;;5080291;28;20063;-93
2021/12/05 18:44:14;;;;;;;4.72;2.70;;;5.40;85.60;;;;;;5076755;28;20056;-91
2021/12/05 18:46:44;;;;;;;5.82;2.60;;;5.40;85.60;;;;;;5079154;28;20052;-90
2021/12/05 18:49:12;;;;;;;4.45;2.58;;;5.40;85.60;;;;;;5082409;28;20048;-93
2021/12/05 18:51:38;;;;;;;4.95;2.88;;;5.40;85.60;;;;;;5082482;28;20098;-90
2021/12/05 18:54:06;;;;;;;5.03;2.45;;;5.40;85.60;;;;;;5081438;28;20048;-92
2021/12/05 18:56:33;;;;;;;4.05;2.55;;;5.40;85.60;;;;;;5083601;28;20056;-91
2021/12/05 18:59:01;;;;;;;7.20;3.08;;;5.30;85.60;;;;;;5090966;28;20127;-92
2021/12/05 19:06:52;;;;;;;6.40;3.10;;;5.30;85.60;;;;;;5080170;28;20106;-91
2021/12/05 19:09:28;;;;;;;5.35;3.15;;;5.30;85.70;;;;;;5080792;28;20048;-90
2021/12/05 19:11:58;;;;;;;4.55;3.00;;;5.30;85.70;;;;;;5079701;28;20051;-91
2021/12/05 19:14:32;;;;;;;6.45;3.28;;;5.30;85.70;;;;;;5079599;28;20055;-92
2021/12/05 19:17:03;;;;;;;6.80;3.58;;;5.30;85.70;;;;;;5061587;28;20402;-91